Niamey, Niger

4:15 PM WAT on September 02, 2014 (GMT +0100)
Diori Hamani | Change Station
CLOSE
Current Station
Airport
Location: Niamey,
Elevation: 745 ft
Nearby Weather Stations

Elev 745 ft 13.48 °N, 2.17 °E | Updated 15 minutes ago

Partly Cloudy
Partly Cloudy
88 °F
Feels Like 91 °F
N
8
Wind Variable Wind from South

Today
High -- | Low -- °F
--% Chance of Precip.
Yesterday
High -- | Low -- °F
Precip. -- in
6:39 AM 7:01 PM
First Quarter, 52% visible
Pressure 29.86 in
Visibility 6.2 miles
Clouds Few 2600 ft
Heat Index 91 °F
Dew Point 68 °F
Humidity 52%
Rainfall 0.00 in
Snow Depth Not available.
UV 8 out of 12
Pollen Not available.
Air Quality Not available.
Flu Activity Not available.
METAR DRRN 021500Z 19007KT 150V230 9999 FEW026 31/20 Q1011 NOSIG

More Conditions Fewer Conditions

Pressure 29.86 in
Visibility 6.2 miles
Clouds Few 2600 ft
Heat Index 91 °F
Dew Point 68 °F
Humidity 52%
Rainfall 0.00 in
Snow Depth Not available.
UV 8 out of 12
Pollen Not available.
Air Quality Not available.
Flu Activity Not available.
METAR DRRN 021500Z 19007KT 150V230 9999 FEW026 31/20 Q1011 NOSIG

More Conditions Fewer Conditions

10-Day Weather Forecast

Almanac

Astronomy

Sep. 02, 2014 Rise Set
Actual Time 6:39 AM WAT 7:01 PM WAT
Civil Twilight 6:18 AM WAT 7:23 PM WAT
Nautical Twilight 5:53 AM WAT 7:48 PM WAT
Astronomical Twilight 5:28 AM WAT 8:13 PM WAT
Moon 1:01 PM WAT No Moon Set
Length of Visible Light 13h 04m
Length of Day
12h 21m
Tomorrow will be 0m 44s shorter.
First Quarter, 52% of the Moon is Illuminated
Today
First Quarter
Sep 8
Full
Sep 15
Last Quarter
Sep 24
New
Oct 1
First Quarter

Today's Extremes

Country Highs Country Lows

Community

WunderPhotos

Upload Photos

1,749,690 photos uploaded!

Nearby

Snow Depth

Not available.

Earthquake Activity

City Distance Mag. Time & Date
No recent earthquake activity has been reported nearby.
Minimum magnitude displayed is 2.5.

Coastal Water Temperatures

Place Temperature
No Stations Reporting

Nearby Weather Stations